sensor_id;sensor_type;location;lat;lon;timestamp;P1;durP1;ratioP1;P2;durP2;ratioP2
38224;SDS011;24025;48.138;11.428;2023-03-01T00:02:13;15.15;;;8.85;;
38224;SDS011;24025;48.138;11.428;2023-03-01T00:04:44;19.15;;;9.70;;
38224;SDS011;24025;48.138;11.428;2023-03-01T00:07:14;17.25;;;9.15;;
38224;SDS011;24025;48.138;11.428;2023-03-01T00:09:45;19.33;;;9.82;;
38224;SDS011;24025;48.138;11.428;2023-03-01T00:12:15;17.75;;;9.93;;
38224;SDS011;24025;48.138;11.428;2023-03-01T00:14:46;22.38;;;9.63;;
38224;SDS011;24025;48.138;11.428;2023-03-01T00:17:16;16.83;;;10.00;;
38224;SDS011;24025;48.138;11.428;2023-03-01T00:19:47;22.42;;;10.07;;
38224;SDS011;24025;48.138;11.428;2023-03-01T00:22:17;24.15;;;9.93;;
38224;SDS011;24025;48.138;11.428;2023-03-01T00:24:47;18.38;;;9.48;;
38224;SDS011;24025;48.138;11.428;2023-03-01T00:27:18;18.88;;;9.90;;
38224;SDS011;24025;48.138;11.428;2023-03-01T00:29:48;18.05;;;9.85;;
38224;SDS011;24025;48.138;11.428;2023-03-01T00:32:18;16.45;;;9.40;;
38224;SDS011;24025;48.138;11.428;2023-03-01T00:34:49;18.85;;;10.32;;
38224;SDS011;24025;48.138;11.428;2023-03-01T00:37:25;20.45;;;9.80;;
38224;SDS011;24025;48.138;11.428;2023-03-01T00:39:55;17.95;;;9.65;;
38224;SDS011;24025;48.138;11.428;2023-03-01T00:42:26;15.18;;;8.70;;
38224;SDS011;24025;48.138;11.428;2023-03-01T00:44:56;16.73;;;9.55;;
38224;SDS011;24025;48.138;11.428;2023-03-01T00:47:28;18.20;;;10.38;;
38224;SDS011;24025;48.138;11.428;2023-03-01T00:49:59;18.45;;;10.68;;
38224;SDS011;24025;48.138;11.428;2023-03-01T00:52:29;23.83;;;11.13;;
38224;SDS011;24025;48.138;11.428;2023-03-01T00:54:59;17.02;;;9.23;;
38224;SDS011;24025;48.138;11.428;2023-03-01T00:57:30;16.88;;;10.15;;
38224;SDS011;24025;48.138;11.428;2023-03-01T01:00:00;19.67;;;9.60;;
38224;SDS011;24025;48.138;11.428;2023-03-01T01:02:34;22.38;;;9.88;;
38224;SDS011;24025;48.138;11.428;2023-03-01T01:05:05;20.02;;;10.32;;
38224;SDS011;24025;48.138;11.428;2023-03-01T01:07:35;19.10;;;10.02;;
38224;SDS011;24025;48.138;11.428;2023-03-01T01:10:06;17.20;;;9.07;;
38224;SDS011;24025;48.138;11.428;2023-03-01T01:12:37;20.95;;;9.98;;
38224;SDS011;24025;48.138;11.428;2023-03-01T01:15:07;20.40;;;9.75;;
38224;SDS011;24025;48.138;11.428;2023-03-01T01:17:38;21.88;;;10.77;;
38224;SDS011;24025;48.138;11.428;2023-03-01T01:20:09;19.95;;;10.55;;
38224;SDS011;24025;48.138;11.428;2023-03-01T01:22:40;18.48;;;9.40;;
38224;SDS011;24025;48.138;11.428;2023-03-01T01:25:10;17.85;;;10.85;;
38224;SDS011;24025;48.138;11.428;2023-03-01T01:27:40;16.58;;;10.07;;
38224;SDS011;24025;48.138;11.428;2023-03-01T01:30:11;18.05;;;10.15;;
38224;SDS011;24025;48.138;11.428;2023-03-01T01:32:42;19.58;;;10.45;;
38224;SDS011;24025;48.138;11.428;2023-03-01T01:35:12;22.80;;;10.95;;
38224;SDS011;24025;48.138;11.428;2023-03-01T01:37:42;21.77;;;10.27;;
38224;SDS011;24025;48.138;11.428;2023-03-01T01:40:13;16.55;;;9.30;;
38224;SDS011;24025;48.138;11.428;2023-03-01T01:42:43;21.60;;;9.65;;
38224;SDS011;24025;48.138;11.428;2023-03-01T01:45:33;22.10;;;10.05;;
38224;SDS011;24025;48.138;11.428;2023-03-01T01:48:10;18.70;;;9.60;;
38224;SDS011;24025;48.138;11.428;2023-03-01T01:50:44;18.60;;;10.00;;
38224;SDS011;24025;48.138;11.428;2023-03-01T01:53:18;17.08;;;10.13;;
38224;SDS011;24025;48.138;11.428;2023-03-01T01:55:54;17.85;;;9.95;;
38224;SDS011;24025;48.138;11.428;2023-03-01T01:58:28;18.55;;;9.32;;
38224;SDS011;24025;48.138;11.428;2023-03-01T02:01:00;16.30;;;9.93;;
38224;SDS011;24025;48.138;11.428;2023-03-01T02:03:32;21.40;;;10.57;;
38224;SDS011;24025;48.138;11.428;2023-03-01T02:06:18;17.20;;;9.73;;
38224;SDS011;24025;48.138;11.428;2023-03-01T02:08:59;20.35;;;10.68;;
38224;SDS011;24025;48.138;11.428;2023-03-01T02:11:34;16.85;;;9.82;;
38224;SDS011;24025;48.138;11.428;2023-03-01T02:14:07;20.00;;;9.75;;
38224;SDS011;24025;48.138;11.428;2023-03-01T02:16:37;18.90;;;9.45;;
38224;SDS011;24025;48.138;11.428;2023-03-01T02:19:08;19.77;;;10.50;;
38224;SDS011;24025;48.138;11.428;2023-03-01T02:24:48;19.05;;;9.65;;
38224;SDS011;24025;48.138;11.428;2023-03-01T02:27:22;17.75;;;10.77;;
38224;SDS011;24025;48.138;11.428;2023-03-01T02:30:00;19.65;;;9.75;;
38224;SDS011;24025;48.138;11.428;2023-03-01T02:32:30;17.52;;;9.50;;
38224;SDS011;24025;48.138;11.428;2023-03-01T02:35:04;17.25;;;10.18;;
38224;SDS011;24025;48.138;11.428;2023-03-01T02:37:37;17.83;;;9.75;;
38224;SDS011;24025;48.138;11.428;2023-03-01T02:40:13;16.65;;;9.35;;
38224;SDS011;24025;48.138;11.428;2023-03-01T02:42:55;18.05;;;9.75;;
38224;SDS011;24025;48.138;11.428;2023-03-01T02:45:28;18.52;;;10.55;;
38224;SDS011;24025;48.138;11.428;2023-03-01T02:47:58;12.77;;;8.40;;
38224;SDS011;24025;48.138;11.428;2023-03-01T02:56:03;16.27;;;9.15;;
38224;SDS011;24025;48.138;11.428;2023-03-01T02:58:34;16.38;;;9.45;;
38224;SDS011;24025;48.138;11.428;2023-03-01T03:01:14;19.67;;;9.82;;
38224;SDS011;24025;48.138;11.428;2023-03-01T03:03:46;18.37;;;10.13;;
38224;SDS011;24025;48.138;11.428;2023-03-01T03:06:16;13.45;;;8.18;;
38224;SDS011;24025;48.138;11.428;2023-03-01T03:08:47;19.20;;;9.40;;
38224;SDS011;24025;48.138;11.428;2023-03-01T03:11:17;18.77;;;9.90;;
38224;SDS011;24025;48.138;11.428;2023-03-01T03:13:48;16.45;;;9.02;;
38224;SDS011;24025;48.138;11.428;2023-03-01T03:16:19;17.48;;;9.07;;
38224;SDS011;24025;48.138;11.428;2023-03-01T03:18:50;19.70;;;9.60;;
38224;SDS011;24025;48.138;11.428;2023-03-01T03:21:20;19.42;;;9.98;;
38224;SDS011;24025;48.138;11.428;2023-03-01T03:23:51;18.85;;;9.52;;
38224;SDS011;24025;48.138;11.428;2023-03-01T03:26:21;16.27;;;9.25;;
38224;SDS011;24025;48.138;11.428;2023-03-01T03:28:53;18.57;;;9.53;;
38224;SDS011;24025;48.138;11.428;2023-03-01T03:31:23;19.13;;;10.45;;
38224;SDS011;24025;48.138;11.428;2023-03-01T03:33:54;19.58;;;9.25;;
38224;SDS011;24025;48.138;11.428;2023-03-01T03:36:24;16.55;;;9.30;;
38224;SDS011;24025;48.138;11.428;2023-03-01T03:38:55;16.23;;;9.50;;
38224;SDS011;24025;48.138;11.428;2023-03-01T03:41:27;16.48;;;9.45;;
38224;SDS011;24025;48.138;11.428;2023-03-01T03:43:57;16.50;;;9.95;;
38224;SDS011;24025;48.138;11.428;2023-03-01T03:46:27;17.98;;;9.95;;
38224;SDS011;24025;48.138;11.428;2023-03-01T03:49:00;16.23;;;9.90;;
38224;SDS011;24025;48.138;11.428;2023-03-01T03:51:30;21.67;;;10.10;;
38224;SDS011;24025;48.138;11.428;2023-03-01T03:54:00;20.05;;;9.77;;
38224;SDS011;24025;48.138;11.428;2023-03-01T03:56:31;13.68;;;8.57;;
38224;SDS011;24025;48.138;11.428;2023-03-01T03:59:01;18.55;;;10.18;;
38224;SDS011;24025;48.138;11.428;2023-03-01T04:01:32;17.60;;;9.43;;
38224;SDS011;24025;48.138;11.428;2023-03-01T04:04:05;18.02;;;10.30;;
38224;SDS011;24025;48.138;11.428;2023-03-01T04:06:37;19.60;;;9.80;;
38224;SDS011;24025;48.138;11.428;2023-03-01T04:09:08;22.45;;;10.88;;
38224;SDS011;24025;48.138;11.428;2023-03-01T04:11:38;17.23;;;9.23;;
38224;SDS011;24025;48.138;11.428;2023-03-01T04:14:09;18.42;;;10.18;;
38224;SDS011;24025;48.138;11.428;2023-03-01T04:16:39;18.42;;;11.25;;
38224;SDS011;24025;48.138;11.428;2023-03-01T04:19:10;24.27;;;11.20;;
38224;SDS011;24025;48.138;11.428;2023-03-01T04:21:41;17.80;;;9.95;;
38224;SDS011;24025;48.138;11.428;2023-03-01T04:24:11;19.88;;;10.70;;
38224;SDS011;24025;48.138;11.428;2023-03-01T04:26:42;21.00;;;11.20;;
38224;SDS011;24025;48.138;11.428;2023-03-01T04:29:13;19.00;;;11.02;;
38224;SDS011;24025;48.138;11.428;2023-03-01T04:31:43;22.98;;;11.38;;
38224;SDS011;24025;48.138;11.428;2023-03-01T04:34:13;16.45;;;9.63;;
38224;SDS011;24025;48.138;11.428;2023-03-01T04:36:44;23.52;;;10.60;;
38224;SDS011;24025;48.138;11.428;2023-03-01T04:39:14;16.67;;;9.40;;
38224;SDS011;24025;48.138;11.428;2023-03-01T04:41:45;18.45;;;10.93;;
38224;SDS011;24025;48.138;11.428;2023-03-01T04:44:15;17.02;;;10.30;;
38224;SDS011;24025;48.138;11.428;2023-03-01T04:46:48;17.60;;;9.80;;
38224;SDS011;24025;48.138;11.428;2023-03-01T04:49:19;20.08;;;10.55;;
38224;SDS011;24025;48.138;11.428;2023-03-01T04:51:50;18.85;;;10.23;;
38224;SDS011;24025;48.138;11.428;2023-03-01T04:54:20;21.98;;;11.48;;
38224;SDS011;24025;48.138;11.428;2023-03-01T04:56:51;20.17;;;10.82;;
38224;SDS011;24025;48.138;11.428;2023-03-01T04:59:21;19.52;;;10.60;;
38224;SDS011;24025;48.138;11.428;2023-03-01T05:01:52;17.55;;;9.65;;
38224;SDS011;24025;48.138;11.428;2023-03-01T05:04:30;26.38;;;11.43;;
38224;SDS011;24025;48.138;11.428;2023-03-01T05:07:00;22.35;;;10.98;;
38224;SDS011;24025;48.138;11.428;2023-03-01T05:09:31;18.10;;;10.05;;
38224;SDS011;24025;48.138;11.428;2023-03-01T05:12:01;18.15;;;10.20;;
38224;SDS011;24025;48.138;11.428;2023-03-01T05:14:31;20.65;;;10.77;;
38224;SDS011;24025;48.138;11.428;2023-03-01T05:17:02;19.63;;;11.20;;
38224;SDS011;24025;48.138;11.428;2023-03-01T05:19:34;22.87;;;10.97;;
38224;SDS011;24025;48.138;11.428;2023-03-01T05:22:04;18.27;;;9.63;;
38224;SDS011;24025;48.138;11.428;2023-03-01T05:24:35;22.40;;;11.07;;
38224;SDS011;24025;48.138;11.428;2023-03-01T05:27:06;26.52;;;10.60;;
38224;SDS011;24025;48.138;11.428;2023-03-01T05:29:37;17.88;;;11.50;;
38224;SDS011;24025;48.138;11.428;2023-03-01T05:32:09;19.58;;;10.25;;
38224;SDS011;24025;48.138;11.428;2023-03-01T05:34:44;20.77;;;10.98;;
38224;SDS011;24025;48.138;11.428;2023-03-01T05:37:16;15.90;;;9.68;;
38224;SDS011;24025;48.138;11.428;2023-03-01T05:39:46;16.67;;;9.75;;
38224;SDS011;24025;48.138;11.428;2023-03-01T05:42:17;20.25;;;11.38;;
38224;SDS011;24025;48.138;11.428;2023-03-01T05:44:47;22.77;;;10.93;;
38224;SDS011;24025;48.138;11.428;2023-03-01T05:47:18;17.80;;;9.87;;
38224;SDS011;24025;48.138;11.428;2023-03-01T05:49:51;20.38;;;10.10;;
38224;SDS011;24025;48.138;11.428;2023-03-01T05:52:21;19.35;;;10.35;;
38224;SDS011;24025;48.138;11.428;2023-03-01T05:54:53;18.55;;;11.23;;
38224;SDS011;24025;48.138;11.428;2023-03-01T05:57:23;20.08;;;10.65;;
38224;SDS011;24025;48.138;11.428;2023-03-01T05:59:54;17.92;;;10.40;;
38224;SDS011;24025;48.138;11.428;2023-03-01T06:02:24;19.33;;;10.57;;
38224;SDS011;24025;48.138;11.428;2023-03-01T06:04:57;20.08;;;9.98;;
38224;SDS011;24025;48.138;11.428;2023-03-01T06:07:27;18.88;;;9.88;;
38224;SDS011;24025;48.138;11.428;2023-03-01T06:09:58;20.92;;;10.27;;
38224;SDS011;24025;48.138;11.428;2023-03-01T06:12:34;20.65;;;10.88;;
38224;SDS011;24025;48.138;11.428;2023-03-01T06:15:06;25.10;;;10.85;;
38224;SDS011;24025;48.138;11.428;2023-03-01T06:17:40;19.95;;;10.65;;
38224;SDS011;24025;48.138;11.428;2023-03-01T06:20:16;16.27;;;10.05;;
38224;SDS011;24025;48.138;11.428;2023-03-01T06:22:51;20.77;;;10.25;;
38224;SDS011;24025;48.138;11.428;2023-03-01T06:25:22;21.48;;;10.73;;
38224;SDS011;24025;48.138;11.428;2023-03-01T06:27:54;23.77;;;10.85;;
38224;SDS011;24025;48.138;11.428;2023-03-01T06:30:25;19.70;;;10.68;;
38224;SDS011;24025;48.138;11.428;2023-03-01T06:32:56;21.10;;;10.50;;
38224;SDS011;24025;48.138;11.428;2023-03-01T06:35:31;20.15;;;10.23;;
38224;SDS011;24025;48.138;11.428;2023-03-01T06:38:02;20.45;;;10.27;;
38224;SDS011;24025;48.138;11.428;2023-03-01T06:40:33;22.88;;;11.70;;
38224;SDS011;24025;48.138;11.428;2023-03-01T06:43:05;21.38;;;10.40;;
38224;SDS011;24025;48.138;11.428;2023-03-01T06:45:37;20.15;;;10.52;;
38224;SDS011;24025;48.138;11.428;2023-03-01T06:48:07;25.25;;;11.07;;
38224;SDS011;24025;48.138;11.428;2023-03-01T06:50:37;20.23;;;11.32;;
38224;SDS011;24025;48.138;11.428;2023-03-01T06:53:08;19.33;;;10.63;;
38224;SDS011;24025;48.138;11.428;2023-03-01T06:55:38;21.58;;;10.38;;
38224;SDS011;24025;48.138;11.428;2023-03-01T06:58:09;19.05;;;10.65;;
38224;SDS011;24025;48.138;11.428;2023-03-01T07:00:40;23.58;;;11.77;;
38224;SDS011;24025;48.138;11.428;2023-03-01T07:03:12;19.20;;;10.40;;
38224;SDS011;24025;48.138;11.428;2023-03-01T07:05:42;19.67;;;11.18;;
38224;SDS011;24025;48.138;11.428;2023-03-01T07:08:14;24.08;;;11.43;;
38224;SDS011;24025;48.138;11.428;2023-03-01T07:10:45;23.00;;;11.43;;
38224;SDS011;24025;48.138;11.428;2023-03-01T07:13:15;23.13;;;11.13;;
38224;SDS011;24025;48.138;11.428;2023-03-01T07:15:45;17.70;;;10.25;;
38224;SDS011;24025;48.138;11.428;2023-03-01T07:18:16;20.73;;;10.77;;
38224;SDS011;24025;48.138;11.428;2023-03-01T07:20:46;26.00;;;11.65;;
38224;SDS011;24025;48.138;11.428;2023-03-01T07:23:17;21.00;;;11.02;;
38224;SDS011;24025;48.138;11.428;2023-03-01T07:25:53;20.67;;;11.32;;
38224;SDS011;24025;48.138;11.428;2023-03-01T07:28:24;20.58;;;9.98;;
38224;SDS011;24025;48.138;11.428;2023-03-01T07:30:55;26.75;;;11.70;;
38224;SDS011;24025;48.138;11.428;2023-03-01T07:33:30;24.60;;;10.95;;
38224;SDS011;24025;48.138;11.428;2023-03-01T07:36:01;21.90;;;12.43;;
38224;SDS011;24025;48.138;11.428;2023-03-01T07:38:33;22.55;;;10.38;;
38224;SDS011;24025;48.138;11.428;2023-03-01T07:41:03;26.35;;;11.60;;
38224;SDS011;24025;48.138;11.428;2023-03-01T07:43:35;21.02;;;10.52;;
38224;SDS011;24025;48.138;11.428;2023-03-01T07:46:05;25.52;;;10.65;;
38224;SDS011;24025;48.138;11.428;2023-03-01T07:48:36;23.85;;;11.90;;
38224;SDS011;24025;48.138;11.428;2023-03-01T07:51:07;25.73;;;11.75;;
38224;SDS011;24025;48.138;11.428;2023-03-01T07:53:37;22.35;;;10.77;;
38224;SDS011;24025;48.138;11.428;2023-03-01T07:56:09;20.52;;;10.65;;
38224;SDS011;24025;48.138;11.428;2023-03-01T07:58:41;23.35;;;11.65;;
38224;SDS011;24025;48.138;11.428;2023-03-01T08:01:14;23.63;;;11.43;;
38224;SDS011;24025;48.138;11.428;2023-03-01T08:03:46;22.38;;;11.95;;
38224;SDS011;24025;48.138;11.428;2023-03-01T08:06:17;24.13;;;12.30;;
38224;SDS011;24025;48.138;11.428;2023-03-01T08:08:48;27.10;;;11.07;;
38224;SDS011;24025;48.138;11.428;2023-03-01T08:11:18;21.95;;;10.10;;
38224;SDS011;24025;48.138;11.428;2023-03-01T08:13:49;23.40;;;11.40;;
38224;SDS011;24025;48.138;11.428;2023-03-01T08:16:19;24.58;;;11.50;;
38224;SDS011;24025;48.138;11.428;2023-03-01T08:18:50;27.13;;;11.50;;
38224;SDS011;24025;48.138;11.428;2023-03-01T08:21:20;24.05;;;10.98;;
38224;SDS011;24025;48.138;11.428;2023-03-01T08:23:51;21.98;;;11.57;;
38224;SDS011;24025;48.138;11.428;2023-03-01T08:26:22;19.15;;;11.38;;
38224;SDS011;24025;48.138;11.428;2023-03-01T08:28:53;22.75;;;11.07;;
38224;SDS011;24025;48.138;11.428;2023-03-01T08:31:24;28.67;;;13.10;;
38224;SDS011;24025;48.138;11.428;2023-03-01T08:33:59;28.10;;;12.90;;
38224;SDS011;24025;48.138;11.428;2023-03-01T08:36:32;20.27;;;11.48;;
38224;SDS011;24025;48.138;11.428;2023-03-01T08:39:07;19.10;;;11.48;;
38224;SDS011;24025;48.138;11.428;2023-03-01T08:41:40;22.27;;;11.68;;
38224;SDS011;24025;48.138;11.428;2023-03-01T08:44:11;24.45;;;12.18;;
38224;SDS011;24025;48.138;11.428;2023-03-01T08:46:43;22.38;;;11.30;;
38224;SDS011;24025;48.138;11.428;2023-03-01T08:49:16;23.53;;;13.07;;
38224;SDS011;24025;48.138;11.428;2023-03-01T08:51:48;25.63;;;11.85;;
38224;SDS011;24025;48.138;11.428;2023-03-01T08:54:19;23.02;;;12.52;;
38224;SDS011;24025;48.138;11.428;2023-03-01T08:56:51;17.75;;;10.70;;
38224;SDS011;24025;48.138;11.428;2023-03-01T08:59:21;23.10;;;11.90;;
38224;SDS011;24025;48.138;11.428;2023-03-01T09:01:51;27.05;;;11.52;;
38224;SDS011;24025;48.138;11.428;2023-03-01T09:04:22;24.85;;;11.88;;
38224;SDS011;24025;48.138;11.428;2023-03-01T09:06:53;29.25;;;13.02;;
38224;SDS011;24025;48.138;11.428;2023-03-01T09:09:23;23.27;;;11.65;;
38224;SDS011;24025;48.138;11.428;2023-03-01T09:11:54;24.15;;;12.38;;
38224;SDS011;24025;48.138;11.428;2023-03-01T09:14:24;23.42;;;12.13;;
38224;SDS011;24025;48.138;11.428;2023-03-01T09:16:55;23.05;;;12.13;;
38224;SDS011;24025;48.138;11.428;2023-03-01T09:19:25;26.55;;;12.10;;
38224;SDS011;24025;48.138;11.428;2023-03-01T09:21:56;25.98;;;12.02;;
38224;SDS011;24025;48.138;11.428;2023-03-01T09:24:28;22.55;;;12.27;;
38224;SDS011;24025;48.138;11.428;2023-03-01T09:26:58;23.83;;;11.73;;
38224;SDS011;24025;48.138;11.428;2023-03-01T09:29:29;19.83;;;11.38;;
38224;SDS011;24025;48.138;11.428;2023-03-01T09:31:59;22.13;;;12.13;;
38224;SDS011;24025;48.138;11.428;2023-03-01T09:34:31;21.80;;;12.65;;
38224;SDS011;24025;48.138;11.428;2023-03-01T09:37:21;20.67;;;11.27;;
38224;SDS011;24025;48.138;11.428;2023-03-01T09:39:52;23.02;;;11.38;;
38224;SDS011;24025;48.138;11.428;2023-03-01T09:42:22;25.27;;;11.82;;
38224;SDS011;24025;48.138;11.428;2023-03-01T09:47:26;27.25;;;13.02;;
38224;SDS011;24025;48.138;11.428;2023-03-01T09:50:09;24.00;;;11.82;;
38224;SDS011;24025;48.138;11.428;2023-03-01T09:53:03;21.42;;;12.20;;
38224;SDS011;24025;48.138;11.428;2023-03-01T10:07:05;23.70;;;12.65;;
38224;SDS011;24025;48.138;11.428;2023-03-01T10:09:38;23.20;;;12.80;;
38224;SDS011;24025;48.138;11.428;2023-03-01T10:12:12;24.00;;;11.70;;
38224;SDS011;24025;48.138;11.428;2023-03-01T10:17:37;25.05;;;13.15;;
38224;SDS011;24025;48.138;11.428;2023-03-01T10:23:25;20.40;;;11.85;;
38224;SDS011;24025;48.138;11.428;2023-03-01T10:31:20;20.92;;;11.35;;
38224;SDS011;24025;48.138;11.428;2023-03-01T10:33:59;22.67;;;12.60;;
38224;SDS011;24025;48.138;11.428;2023-03-01T10:36:31;21.63;;;11.13;;
38224;SDS011;24025;48.138;11.428;2023-03-01T10:39:03;20.30;;;12.20;;
38224;SDS011;24025;48.138;11.428;2023-03-01T10:42:01;23.05;;;11.57;;
38224;SDS011;24025;48.138;11.428;2023-03-01T10:44:36;25.27;;;12.18;;
38224;SDS011;24025;48.138;11.428;2023-03-01T10:52:35;25.38;;;11.70;;
38224;SDS011;24025;48.138;11.428;2023-03-01T10:57:46;23.48;;;12.75;;
38224;SDS011;24025;48.138;11.428;2023-03-01T11:00:18;21.48;;;12.13;;
38224;SDS011;24025;48.138;11.428;2023-03-01T11:05:27;21.13;;;11.85;;
38224;SDS011;24025;48.138;11.428;2023-03-01T11:10:34;24.65;;;11.75;;
38224;SDS011;24025;48.138;11.428;2023-03-01T11:15:38;20.60;;;11.63;;
38224;SDS011;24025;48.138;11.428;2023-03-01T11:18:42;22.27;;;12.68;;
38224;SDS011;24025;48.138;11.428;2023-03-01T11:21:05;23.02;;;12.55;;
38224;SDS011;24025;48.138;11.428;2023-03-01T11:23:39;25.35;;;12.75;;
38224;SDS011;24025;48.138;11.428;2023-03-01T11:26:13;20.95;;;12.02;;
38224;SDS011;24025;48.138;11.428;2023-03-01T11:28:48;19.73;;;11.15;;
38224;SDS011;24025;48.138;11.428;2023-03-01T11:31:23;24.67;;;12.02;;
38224;SDS011;24025;48.138;11.428;2023-03-01T11:33:59;22.48;;;13.20;;
38224;SDS011;24025;48.138;11.428;2023-03-01T11:42:05;26.10;;;13.40;;
38224;SDS011;24025;48.138;11.428;2023-03-01T11:44:37;25.75;;;12.63;;
38224;SDS011;24025;48.138;11.428;2023-03-01T11:47:16;26.25;;;13.85;;
38224;SDS011;24025;48.138;11.428;2023-03-01T11:50:05;25.95;;;13.82;;
38224;SDS011;24025;48.138;11.428;2023-03-01T11:56:05;19.77;;;11.38;;
38224;SDS011;24025;48.138;11.428;2023-03-01T12:07:27;23.48;;;13.15;;
38224;SDS011;24025;48.138;11.428;2023-03-01T12:12:58;27.53;;;13.83;;
38224;SDS011;24025;48.138;11.428;2023-03-01T12:21:38;22.85;;;13.05;;
38224;SDS011;24025;48.138;11.428;2023-03-01T12:24:32;19.63;;;11.85;;
38224;SDS011;24025;48.138;11.428;2023-03-01T12:30:21;22.45;;;12.18;;
38224;SDS011;24025;48.138;11.428;2023-03-01T12:41:48;21.77;;;12.30;;
38224;SDS011;24025;48.138;11.428;2023-03-01T12:50:18;18.17;;;11.93;;
38224;SDS011;24025;48.138;11.428;2023-03-01T12:52:52;22.88;;;13.05;;
38224;SDS011;24025;48.138;11.428;2023-03-01T13:03:44;24.40;;;14.07;;
38224;SDS011;24025;48.138;11.428;2023-03-01T13:06:41;20.02;;;13.30;;
38224;SDS011;24025;48.138;11.428;2023-03-01T13:09:29;20.35;;;13.07;;
38224;SDS011;24025;48.138;11.428;2023-03-01T13:12:01;20.35;;;13.05;;
38224;SDS011;24025;48.138;11.428;2023-03-01T13:17:02;21.80;;;13.13;;
38224;SDS011;24025;48.138;11.428;2023-03-01T13:19:33;24.65;;;13.70;;
38224;SDS011;24025;48.138;11.428;2023-03-01T13:25:01;19.27;;;12.75;;
38224;SDS011;24025;48.138;11.428;2023-03-01T13:27:44;19.27;;;12.50;;
38224;SDS011;24025;48.138;11.428;2023-03-01T13:33:33;20.45;;;13.30;;
38224;SDS011;24025;48.138;11.428;2023-03-01T13:46:58;16.67;;;13.10;;
38224;SDS011;24025;48.138;11.428;2023-03-01T13:49:48;18.67;;;13.32;;
38224;SDS011;24025;48.138;11.428;2023-03-01T13:52:32;19.98;;;12.35;;
38224;SDS011;24025;48.138;11.428;2023-03-01T13:55:24;23.00;;;13.43;;
38224;SDS011;24025;48.138;11.428;2023-03-01T14:01:02;19.42;;;13.02;;
38224;SDS011;24025;48.138;11.428;2023-03-01T14:03:39;20.23;;;13.90;;
38224;SDS011;24025;48.138;11.428;2023-03-01T14:06:25;16.85;;;12.20;;
38224;SDS011;24025;48.138;11.428;2023-03-01T14:09:16;17.45;;;13.63;;
38224;SDS011;24025;48.138;11.428;2023-03-01T14:12:08;19.15;;;12.60;;
38224;SDS011;24025;48.138;11.428;2023-03-01T14:15:01;18.85;;;13.23;;
38224;SDS011;24025;48.138;11.428;2023-03-01T14:23:01;20.40;;;13.90;;
38224;SDS011;24025;48.138;11.428;2023-03-01T14:25:38;19.98;;;14.15;;
38224;SDS011;24025;48.138;11.428;2023-03-01T14:30:49;23.75;;;14.32;;
38224;SDS011;24025;48.138;11.428;2023-03-01T14:33:31;20.65;;;12.77;;
38224;SDS011;24025;48.138;11.428;2023-03-01T14:38:46;21.95;;;14.55;;
38224;SDS011;24025;48.138;11.428;2023-03-01T14:41:18;20.60;;;13.48;;
38224;SDS011;24025;48.138;11.428;2023-03-01T14:43:55;20.13;;;12.68;;
38224;SDS011;24025;48.138;11.428;2023-03-01T14:46:40;21.63;;;12.85;;
38224;SDS011;24025;48.138;11.428;2023-03-01T14:49:17;22.98;;;12.32;;
38224;SDS011;24025;48.138;11.428;2023-03-01T14:51:57;23.33;;;13.82;;
38224;SDS011;24025;48.138;11.428;2023-03-01T14:54:42;21.75;;;12.52;;
38224;SDS011;24025;48.138;11.428;2023-03-01T14:57:16;17.23;;;11.25;;
38224;SDS011;24025;48.138;11.428;2023-03-01T14:59:58;18.38;;;11.13;;
38224;SDS011;24025;48.138;11.428;2023-03-01T15:02:33;20.52;;;12.60;;
38224;SDS011;24025;48.138;11.428;2023-03-01T15:07:40;20.00;;;12.35;;
38224;SDS011;24025;48.138;11.428;2023-03-01T15:10:16;21.80;;;12.40;;
38224;SDS011;24025;48.138;11.428;2023-03-01T15:12:52;20.35;;;11.20;;
38224;SDS011;24025;48.138;11.428;2023-03-01T15:15:36;16.95;;;11.75;;
38224;SDS011;24025;48.138;11.428;2023-03-01T15:18:21;20.02;;;11.43;;
38224;SDS011;24025;48.138;11.428;2023-03-01T15:20:56;20.40;;;11.68;;
38224;SDS011;24025;48.138;11.428;2023-03-01T15:23:37;21.75;;;12.77;;
38224;SDS011;24025;48.138;11.428;2023-03-01T15:29:17;23.50;;;11.32;;
38224;SDS011;24025;48.138;11.428;2023-03-01T15:31:59;19.02;;;10.88;;
38224;SDS011;24025;48.138;11.428;2023-03-01T15:34:36;25.35;;;11.48;;
38224;SDS011;24025;48.138;11.428;2023-03-01T15:37:35;19.08;;;11.20;;
38224;SDS011;24025;48.138;11.428;2023-03-01T15:40:24;17.25;;;10.52;;
38224;SDS011;24025;48.138;11.428;2023-03-01T15:43:02;17.33;;;10.57;;
38224;SDS011;24025;48.138;11.428;2023-03-01T15:45:34;18.85;;;11.40;;
38224;SDS011;24025;48.138;11.428;2023-03-01T15:48:15;21.05;;;11.95;;
38224;SDS011;24025;48.138;11.428;2023-03-01T15:50:56;18.15;;;10.82;;
38224;SDS011;24025;48.138;11.428;2023-03-01T15:53:28;16.35;;;10.50;;
38224;SDS011;24025;48.138;11.428;2023-03-01T15:55:59;19.40;;;11.35;;
38224;SDS011;24025;48.138;11.428;2023-03-01T15:58:29;18.55;;;10.82;;
38224;SDS011;24025;48.138;11.428;2023-03-01T16:00:59;25.55;;;11.70;;
38224;SDS011;24025;48.138;11.428;2023-03-01T16:03:30;17.75;;;10.52;;
38224;SDS011;24025;48.138;11.428;2023-03-01T16:06:01;18.80;;;11.18;;
38224;SDS011;24025;48.138;11.428;2023-03-01T16:08:33;17.67;;;10.87;;
38224;SDS011;24025;48.138;11.428;2023-03-01T16:11:09;19.40;;;10.80;;
38224;SDS011;24025;48.138;11.428;2023-03-01T16:13:48;19.70;;;10.15;;
38224;SDS011;24025;48.138;11.428;2023-03-01T16:16:19;16.58;;;10.27;;
38224;SDS011;24025;48.138;11.428;2023-03-01T16:18:50;18.92;;;10.73;;
38224;SDS011;24025;48.138;11.428;2023-03-01T16:21:21;20.70;;;11.45;;
38224;SDS011;24025;48.138;11.428;2023-03-01T16:23:53;22.10;;;10.77;;
38224;SDS011;24025;48.138;11.428;2023-03-01T16:26:23;17.33;;;9.98;;
38224;SDS011;24025;48.138;11.428;2023-03-01T16:28:54;18.63;;;11.13;;
38224;SDS011;24025;48.138;11.428;2023-03-01T16:31:26;20.35;;;11.38;;
38224;SDS011;24025;48.138;11.428;2023-03-01T16:33:57;20.08;;;11.05;;
38224;SDS011;24025;48.138;11.428;2023-03-01T16:36:29;15.98;;;9.55;;
38224;SDS011;24025;48.138;11.428;2023-03-01T16:39:00;18.02;;;10.02;;
38224;SDS011;24025;48.138;11.428;2023-03-01T16:41:32;17.50;;;9.85;;
38224;SDS011;24025;48.138;11.428;2023-03-01T16:44:03;18.27;;;9.88;;
38224;SDS011;24025;48.138;11.428;2023-03-01T16:46:33;21.20;;;10.15;;
38224;SDS011;24025;48.138;11.428;2023-03-01T16:49:03;19.33;;;10.07;;
38224;SDS011;24025;48.138;11.428;2023-03-01T16:51:34;19.73;;;9.90;;
38224;SDS011;24025;48.138;11.428;2023-03-01T16:54:06;16.70;;;10.30;;
38224;SDS011;24025;48.138;11.428;2023-03-01T16:56:36;18.90;;;9.52;;
38224;SDS011;24025;48.138;11.428;2023-03-01T16:59:08;19.45;;;9.77;;
38224;SDS011;24025;48.138;11.428;2023-03-01T17:01:39;20.65;;;10.48;;
38224;SDS011;24025;48.138;11.428;2023-03-01T17:04:11;16.80;;;9.93;;
38224;SDS011;24025;48.138;11.428;2023-03-01T17:06:42;22.80;;;9.47;;
38224;SDS011;24025;48.138;11.428;2023-03-01T17:09:12;18.88;;;9.52;;